Time;durP1;ratioP1;P1;durP2;ratioP2;P2;SDS_P1;SDS_P2;PMS_P1;PMS_P2;Temp;Humidity;BMP_temperature;BMP_pressure;BME280_temperature;BME280_humidity;BME280_pressure;Samples;Min_cycle;Max_cycle;Signal;HPM_P1;HPM_P2
2022/09/19 00:01:12;;;;;;;;;;;20.80;99.90;;;;;;5036604;28;19929;-65
2022/09/19 00:03:41;;;;;;;;;;;20.80;99.90;;;;;;5031956;28;20281;-65
2022/09/19 00:06:09;;;;;;;;;;;20.80;99.90;;;;;;5047896;28;19929;-66
2022/09/19 00:08:40;;;;;;;;;;;20.70;99.90;;;;;;5042222;28;19929;-65
2022/09/19 00:11:08;;;;;;;;;;;20.70;99.90;;;;;;5037827;28;19941;-66
2022/09/19 00:13:36;;;;;;;;;;;20.70;99.90;;;;;;5016111;28;19932;-63
2022/09/19 00:16:03;;;;;;;;;;;20.70;99.90;;;;;;5024045;28;19932;-64
2022/09/19 00:18:30;;;;;;;;;;;20.70;99.90;;;;;;5015182;28;19933;-64
2022/09/19 00:21:00;;;;;;;;;;;20.70;99.90;;;;;;5024543;28;19932;-64
2022/09/19 00:26:17;;;;;;;;;;;20.70;99.90;;;;;;5027684;28;19936;-64
2022/09/19 00:28:46;;;;;;;;;;;20.60;99.90;;;;;;5034054;28;19929;-65
2022/09/19 00:31:17;;;;;;;;;;;20.60;99.90;;;;;;5020214;28;19937;-65
2022/09/19 00:33:46;;;;;;;;;;;20.60;99.90;;;;;;5035035;28;19939;-65
2022/09/19 00:36:13;;;;;;;;;;;20.60;99.90;;;;;;5039873;28;19929;-66
2022/09/19 00:38:41;;;;;;;;;;;20.60;99.90;;;;;;5030416;28;19929;-66
2022/09/19 00:41:12;;;;;;;;;;;20.60;99.90;;;;;;5009736;28;19933;-64
2022/09/19 00:43:48;;;;;;;;;;;20.60;99.90;;;;;;5029615;28;19936;-65
2022/09/19 00:46:16;;;;;;;;;;;20.60;99.90;;;;;;5019673;28;19925;-67
2022/09/19 00:48:45;;;;;;;;;;;20.60;99.90;;;;;;5025173;28;19929;-65
2022/09/19 00:51:18;;;;;;;;;;;20.60;99.90;;;;;;5019596;28;20432;-66
2022/09/19 00:53:46;;;;;;;;;;;20.50;99.90;;;;;;5029128;28;19925;-63
2022/09/19 00:56:16;;;;;;;;;;;20.60;99.90;;;;;;5022630;28;19934;-65
2022/09/19 00:58:44;;;;;;;;;;;20.50;99.90;;;;;;5026706;28;19929;-67
2022/09/19 01:01:13;;;;;;;;;;;20.60;99.90;;;;;;5028534;28;19933;-67
2022/09/19 01:03:41;;;;;;;;;;;20.60;99.90;;;;;;5009832;28;19933;-67
2022/09/19 01:06:11;;;;;;;;;;;20.50;99.90;;;;;;5024529;28;20320;-64
2022/09/19 01:08:45;;;;;;;;;;;20.50;99.90;;;;;;5030268;28;20309;-64
2022/09/19 01:11:30;;;;;;;;;;;20.50;99.90;;;;;;5040131;28;19925;-65
2022/09/19 01:14:05;;;;;;;;;;;20.50;99.90;;;;;;5038014;28;19931;-65
2022/09/19 01:16:36;;;;;;;;;;;20.50;99.90;;;;;;5032959;28;19925;-63
2022/09/19 01:19:18;;;;;;;;;;;20.50;99.90;;;;;;5041363;28;20320;-64
2022/09/19 01:21:48;;;;;;;;;;;20.50;99.90;;;;;;5041275;28;19929;-65
2022/09/19 01:24:32;;;;;;;;;;;20.40;99.90;;;;;;5030085;28;19929;-66
2022/09/19 01:27:09;;;;;;;;;;;20.50;99.90;;;;;;5036603;28;19929;-63
2022/09/19 01:29:49;;;;;;;;;;;20.40;99.90;;;;;;5016209;28;20404;-64
2022/09/19 01:32:19;;;;;;;;;;;20.40;99.90;;;;;;5030042;28;20484;-64
2022/09/19 01:34:50;;;;;;;;;;;20.40;99.90;;;;;;5017797;28;19929;-64
2022/09/19 01:37:27;;;;;;;;;;;20.40;99.90;;;;;;5017561;28;19925;-64
2022/09/19 01:40:01;;;;;;;;;;;20.40;99.90;;;;;;5018985;28;19929;-63
2022/09/19 01:42:31;;;;;;;;;;;20.40;99.90;;;;;;5027812;28;19925;-65
2022/09/19 01:44:59;;;;;;;;;;;20.40;99.90;;;;;;5017031;28;19929;-66
2022/09/19 01:47:36;;;;;;;;;;;20.40;99.90;;;;;;5022261;28;19952;-64
2022/09/19 01:50:07;;;;;;;;;;;20.40;99.90;;;;;;5006169;28;19962;-66
2022/09/19 01:52:56;;;;;;;;;;;20.40;99.90;;;;;;5008881;28;19929;-65
2022/09/19 01:55:42;;;;;;;;;;;20.40;99.90;;;;;;5024182;28;19931;-63
2022/09/19 01:58:13;;;;;;;;;;;20.30;99.90;;;;;;5010865;28;20728;-65
2022/09/19 02:00:53;;;;;;;;;;;20.40;99.90;;;;;;5019795;28;19936;-65
2022/09/19 02:03:33;;;;;;;;;;;20.40;99.90;;;;;;5027875;28;19925;-65
2022/09/19 02:06:13;;;;;;;;;;;20.30;99.90;;;;;;5018676;28;20286;-66
2022/09/19 02:08:50;;;;;;;;;;;20.30;99.90;;;;;;5025387;28;19929;-65
2022/09/19 02:11:31;;;;;;;;;;;20.30;99.90;;;;;;5008124;28;20393;-64
2022/09/19 02:14:10;;;;;;;;;;;20.30;99.90;;;;;;5023525;28;20433;-66
2022/09/19 02:16:45;;;;;;;;;;;20.30;99.90;;;;;;5010319;28;19929;-65
2022/09/19 02:19:16;;;;;;;;;;;20.30;99.90;;;;;;5028611;28;20425;-64
2022/09/19 02:21:48;;;;;;;;;;;20.30;99.90;;;;;;5014449;28;19926;-66
2022/09/19 02:24:18;;;;;;;;;;;20.30;99.90;;;;;;5023309;28;19925;-66
2022/09/19 02:26:48;;;;;;;;;;;20.30;99.90;;;;;;5013137;28;19926;-66
2022/09/19 02:29:19;;;;;;;;;;;20.30;99.90;;;;;;5012453;28;19930;-64
2022/09/19 02:31:47;;;;;;;;;;;20.30;99.90;;;;;;5007776;28;19937;-64
2022/09/19 02:34:15;;;;;;;;;;;20.30;99.90;;;;;;5014940;28;19929;-65
2022/09/19 02:37:01;;;;;;;;;;;20.30;99.90;;;;;;5008935;28;19933;-65
2022/09/19 02:39:44;;;;;;;;;;;20.30;99.90;;;;;;4990042;28;20975;-65
2022/09/19 02:42:29;;;;;;;;;;;20.30;99.90;;;;;;5015325;28;19929;-65
2022/09/19 02:45:17;;;;;;;;;;;20.30;99.90;;;;;;5010777;28;19941;-66
2022/09/19 02:48:08;;;;;;;;;;;20.20;99.90;;;;;;5001934;28;19940;-65
2022/09/19 02:50:40;;;;;;;;;;;20.20;99.90;;;;;;5004299;28;19930;-64
2022/09/19 02:53:11;;;;;;;;;;;20.20;99.90;;;;;;4997593;28;19933;-62
2022/09/19 02:55:44;;;;;;;;;;;20.20;99.90;;;;;;5012002;28;19929;-66
2022/09/19 02:58:14;;;;;;;;;;;20.20;99.90;;;;;;5010968;28;19937;-62
2022/09/19 03:00:45;;;;;;;;;;;20.20;99.90;;;;;;5002932;28;19926;-64
2022/09/19 03:06:02;;;;;;;;;;;20.20;99.90;;;;;;5005410;28;19929;-65
2022/09/19 03:08:35;;;;;;;;;;;20.20;99.90;;;;;;5010592;28;19932;-63
2022/09/19 03:11:07;;;;;;;;;;;20.20;99.90;;;;;;5011298;28;19929;-66
2022/09/19 03:13:36;;;;;;;;;;;20.20;99.90;;;;;;5007811;28;19929;-66
2022/09/19 03:16:12;;;;;;;;;;;20.20;99.90;;;;;;5002625;28;19941;-65
2022/09/19 03:18:41;;;;;;;;;;;20.20;99.90;;;;;;4990724;28;19936;-66
2022/09/19 03:21:09;;;;;;;;;;;20.20;99.90;;;;;;5006631;28;20405;-65
2022/09/19 03:23:38;;;;;;;;;;;20.20;99.90;;;;;;5011157;28;19930;-65
2022/09/19 03:26:08;;;;;;;;;;;20.20;99.90;;;;;;5008620;28;19933;-66
2022/09/19 03:28:36;;;;;;;;;;;20.20;99.90;;;;;;5011057;28;20392;-64
2022/09/19 03:31:03;;;;;;;;;;;20.20;99.90;;;;;;5014701;28;20320;-66
2022/09/19 03:33:30;;;;;;;;;;;20.20;99.90;;;;;;5019773;28;19925;-65
2022/09/19 03:36:07;;;;;;;;;;;20.10;99.90;;;;;;5009615;28;20460;-65
2022/09/19 03:38:42;;;;;;;;;;;20.10;99.90;;;;;;5006072;28;19933;-65
2022/09/19 03:41:11;;;;;;;;;;;20.10;99.90;;;;;;5005287;28;20416;-64
2022/09/19 03:43:40;;;;;;;;;;;20.10;99.90;;;;;;5007172;28;20503;-64
2022/09/19 03:46:11;;;;;;;;;;;20.10;99.90;;;;;;5012517;28;20316;-66
2022/09/19 03:48:41;;;;;;;;;;;20.10;99.90;;;;;;5016787;28;19936;-65
2022/09/19 03:51:08;;;;;;;;;;;20.10;99.90;;;;;;5008708;28;20357;-65
2022/09/19 03:53:35;;;;;;;;;;;20.10;99.90;;;;;;5001798;28;19925;-66
2022/09/19 03:56:04;;;;;;;;;;;20.10;99.90;;;;;;5004189;28;19929;-65
2022/09/19 03:58:35;;;;;;;;;;;20.10;99.90;;;;;;4997418;28;19936;-65
2022/09/19 04:01:03;;;;;;;;;;;20.10;99.90;;;;;;5003624;28;19933;-64
2022/09/19 04:03:31;;;;;;;;;;;20.10;99.90;;;;;;4997546;28;19929;-65
2022/09/19 04:05:58;;;;;;;;;;;20.10;99.90;;;;;;5002838;28;19929;-64
2022/09/19 04:08:25;;;;;;;;;;;20.10;99.90;;;;;;5003811;28;20326;-63
2022/09/19 04:10:53;;;;;;;;;;;20.10;99.90;;;;;;5003491;28;19930;-65
2022/09/19 04:13:21;;;;;;;;;;;20.00;99.90;;;;;;4996781;28;19925;-66
2022/09/19 04:15:50;;;;;;;;;;;20.00;99.90;;;;;;5019646;28;19937;-66
2022/09/19 04:18:18;;;;;;;;;;;20.00;99.90;;;;;;5004614;28;19926;-64
2022/09/19 04:20:45;;;;;;;;;;;20.10;99.90;;;;;;5001777;28;19948;-63
2022/09/19 04:23:25;;;;;;;;;;;20.10;99.90;;;;;;5007328;28;19930;-64
2022/09/19 04:26:11;;;;;;;;;;;20.20;99.90;;;;;;5002956;28;20333;-60
2022/09/19 04:28:43;;;;;;;;;;;20.20;99.90;;;;;;5006775;28;19930;-61
2022/09/19 04:31:12;;;;;;;;;;;20.20;99.90;;;;;;5018435;28;19944;-61
2022/09/19 04:33:42;;;;;;;;;;;20.20;99.90;;;;;;4996016;28;19930;-56
2022/09/19 04:36:09;;;;;;;;;;;20.20;99.90;;;;;;5010258;28;20460;-62
2022/09/19 04:38:36;;;;;;;;;;;20.20;99.90;;;;;;5009203;28;19929;-61
2022/09/19 04:41:10;;;;;;;;;;;20.20;99.90;;;;;;5006402;28;19930;-62
2022/09/19 04:43:37;;;;;;;;;;;20.30;99.90;;;;;;5009782;28;19929;-62
2022/09/19 04:46:21;;;;;;;;;;;20.30;99.90;;;;;;5001996;28;19926;-60
2022/09/19 04:48:51;;;;;;;;;;;20.30;99.90;;;;;;5007219;28;20428;-60
2022/09/19 04:51:22;;;;;;;;;;;20.30;99.90;;;;;;5014456;28;19929;-62
2022/09/19 04:53:49;;;;;;;;;;;20.30;99.90;;;;;;5003053;28;19930;-62
2022/09/19 04:56:18;;;;;;;;;;;20.30;99.90;;;;;;5006598;28;19929;-63
2022/09/19 04:58:45;;;;;;;;;;;20.30;99.90;;;;;;5010809;28;19925;-64
2022/09/19 05:01:13;;;;;;;;;;;20.30;99.90;;;;;;5000803;28;19936;-63
2022/09/19 05:03:43;;;;;;;;;;;20.30;99.90;;;;;;5005155;28;19930;-63
2022/09/19 05:06:12;;;;;;;;;;;20.30;99.90;;;;;;5003630;28;19929;-62
2022/09/19 05:08:41;;;;;;;;;;;20.30;99.90;;;;;;4996497;28;19929;-62
2022/09/19 05:11:22;;;;;;;;;;;20.30;99.90;;;;;;5002827;28;19937;-61
2022/09/19 05:13:52;;;;;;;;;;;20.30;99.90;;;;;;5010149;28;19925;-61
2022/09/19 05:16:22;;;;;;;;;;;20.30;99.90;;;;;;5010772;28;19936;-59
2022/09/19 05:18:58;;;;;;;;;;;20.30;99.90;;;;;;5003380;28;19929;-60
2022/09/19 05:21:26;;;;;;;;;;;20.30;99.90;;;;;;4989212;28;20317;-60
2022/09/19 05:23:55;;;;;;;;;;;20.30;99.90;;;;;;4998336;28;20342;-64
2022/09/19 05:26:22;;;;;;;;;;;20.30;99.90;;;;;;5017599;28;19936;-62
2022/09/19 05:28:53;;;;;;;;;;;20.30;99.90;;;;;;5017195;28;19937;-63
2022/09/19 05:31:25;;;;;;;;;;;20.30;99.90;;;;;;4995867;28;20320;-63
2022/09/19 05:34:13;;;;;;;;;;;20.30;99.90;;;;;;5037969;28;20416;-63
2022/09/19 05:36:42;;;;;;;;;;;20.20;99.90;;;;;;5021721;28;19936;-62
2022/09/19 05:39:41;;;;;;;;;;;20.20;99.90;;;;;;4984400;28;19925;-65
2022/09/19 05:42:28;;;;;;;;;;;20.20;99.90;;;;;;5020735;28;19940;-67
2022/09/19 05:44:55;;;;;;;;;;;20.20;99.90;;;;;;5019039;28;21805;-65
2022/09/19 05:47:23;;;;;;;;;;;20.30;99.90;;;;;;5027593;28;19929;-64
2022/09/19 05:49:50;;;;;;;;;;;20.30;99.90;;;;;;5010295;28;19925;-63
2022/09/19 05:55:05;;;;;;;;;;;20.10;99.90;;;;;;5022673;28;20005;-64
2022/09/19 05:57:55;;;;;;;;;;;19.90;99.90;;;;;;5010061;28;19936;-64
2022/09/19 06:00:24;;;;;;;;;;;19.90;99.90;;;;;;5002835;28;20325;-63
2022/09/19 06:02:52;;;;;;;;;;;19.90;99.90;;;;;;5017253;28;19925;-64
2022/09/19 06:05:19;;;;;;;;;;;19.90;99.90;;;;;;5021065;28;19929;-61
2022/09/19 06:07:47;;;;;;;;;;;19.90;99.90;;;;;;5017744;28;19936;-64
2022/09/19 06:10:14;;;;;;;;;;;19.90;99.90;;;;;;5030535;28;19953;-65
2022/09/19 06:12:41;;;;;;;;;;;19.90;99.90;;;;;;5039106;28;19929;-65
2022/09/19 06:15:08;;;;;;;;;;;20.00;99.90;;;;;;5004661;28;19929;-64
2022/09/19 06:17:35;;;;;;;;;;;20.00;99.90;;;;;;5010721;28;19932;-63
2022/09/19 06:20:17;;;;;;;;;;;19.90;99.90;;;;;;5030428;28;19924;-63
2022/09/19 06:23:04;;;;;;;;;;;19.90;99.90;;;;;;5038354;28;19929;-61
2022/09/19 06:25:31;;;;;;;;;;;19.90;99.90;;;;;;5027439;28;19929;-65
2022/09/19 06:28:05;;;;;;;;;;;19.90;99.90;;;;;;5023127;28;19932;-61
2022/09/19 06:30:35;;;;;;;;;;;19.90;99.90;;;;;;5002488;28;19929;-64
2022/09/19 06:33:13;;;;;;;;;;;19.90;99.90;;;;;;5006899;28;19941;-64
2022/09/19 06:36:01;;;;;;;;;;;19.90;99.90;;;;;;5022587;28;20309;-62
2022/09/19 06:38:33;;;;;;;;;;;19.90;99.90;;;;;;5015463;28;19925;-63
2022/09/19 06:41:20;;;;;;;;;;;19.90;99.90;;;;;;5018953;28;19925;-65
2022/09/19 06:44:07;;;;;;;;;;;19.90;99.90;;;;;;5034526;28;19928;-65
2022/09/19 06:46:53;;;;;;;;;;;19.90;99.90;;;;;;5024725;28;19937;-62
2022/09/19 06:49:30;;;;;;;;;;;19.90;99.90;;;;;;5019079;28;19925;-62
2022/09/19 06:52:15;;;;;;;;;;;19.90;99.90;;;;;;5015633;28;19933;-61
2022/09/19 06:54:43;;;;;;;;;;;19.90;99.90;;;;;;5023355;28;20332;-64
2022/09/19 06:57:11;;;;;;;;;;;19.90;99.90;;;;;;5031621;28;20412;-64
2022/09/19 06:59:38;;;;;;;;;;;19.90;99.90;;;;;;5006652;28;19936;-61
2022/09/19 07:02:05;;;;;;;;;;;19.90;99.90;;;;;;5020969;28;19933;-63
2022/09/19 07:04:34;;;;;;;;;;;19.90;99.90;;;;;;5023883;28;19937;-66
2022/09/19 07:07:27;;;;;;;;;;;19.90;99.90;;;;;;5016210;28;19929;-63
2022/09/19 07:09:57;;;;;;;;;;;19.90;99.90;;;;;;5004496;28;20307;-62
2022/09/19 07:12:25;;;;;;;;;;;19.90;99.90;;;;;;5023785;28;19933;-63
2022/09/19 07:14:59;;;;;;;;;;;19.90;99.90;;;;;;4994614;28;19926;-62
2022/09/19 07:17:26;;;;;;;;;;;19.90;99.90;;;;;;5029562;28;19933;-62
2022/09/19 07:19:54;;;;;;;;;;;20.00;99.90;;;;;;5022246;28;19926;-64
2022/09/19 07:23:01;;;;;;;;;;;20.00;99.90;;;;;;5014587;28;19925;-63
2022/09/19 07:25:50;;;;;;;;;;;19.90;99.90;;;;;;5008503;28;19925;-65
2022/09/19 07:28:20;;;;;;;;;;;20.00;99.90;;;;;;5011659;28;19935;-64
2022/09/19 07:30:49;;;;;;;;;;;20.00;99.90;;;;;;5022125;28;19933;-61
2022/09/19 07:33:21;;;;;;;;;;;20.10;99.90;;;;;;5022709;28;19925;-61
2022/09/19 07:35:48;;;;;;;;;;;20.10;99.90;;;;;;5015031;28;19933;-64
2022/09/19 07:38:17;;;;;;;;;;;20.10;99.90;;;;;;5016029;28;20490;-63
2022/09/19 07:41:02;;;;;;;;;;;20.00;99.90;;;;;;5021978;28;19928;-62
2022/09/19 07:43:35;;;;;;;;;;;20.10;99.90;;;;;;4995617;28;19929;-64
2022/09/19 07:46:37;;;;;;;;;;;20.10;99.90;;;;;;5010162;28;19933;-62
2022/09/19 07:49:07;;;;;;;;;;;20.10;99.90;;;;;;5037460;28;19932;-63
2022/09/19 07:51:58;;;;;;;;;;;20.10;99.90;;;;;;5033657;28;19953;-64
2022/09/19 07:54:25;;;;;;;;;;;20.10;99.90;;;;;;5012683;28;19936;-63
2022/09/19 07:56:54;;;;;;;;;;;20.10;99.90;;;;;;5032154;28;19929;-61
2022/09/19 07:59:21;;;;;;;;;;;20.10;99.90;;;;;;5029135;28;19936;-64
2022/09/19 08:01:54;;;;;;;;;;;20.10;99.90;;;;;;5021183;28;19936;-63
2022/09/19 08:04:33;;;;;;;;;;;20.10;99.90;;;;;;5017406;28;20312;-64
2022/09/19 08:07:00;;;;;;;;;;;20.10;99.90;;;;;;5030678;28;19925;-62
2022/09/19 08:09:28;;;;;;;;;;;20.10;99.90;;;;;;5031684;28;19933;-64
2022/09/19 08:12:02;;;;;;;;;;;20.10;99.90;;;;;;5026568;28;19937;-64
2022/09/19 08:14:32;;;;;;;;;;;20.10;99.90;;;;;;5025471;28;19929;-65
2022/09/19 08:16:59;;;;;;;;;;;20.10;99.90;;;;;;5038045;28;19933;-64
2022/09/19 08:19:28;;;;;;;;;;;20.10;99.90;;;;;;5012280;28;19935;-63
2022/09/19 08:21:58;;;;;;;;;;;20.00;99.90;;;;;;5011442;28;19929;-63
2022/09/19 08:24:31;;;;;;;;;;;20.00;99.90;;;;;;5010730;28;19929;-61
2022/09/19 08:27:05;;;;;;;;;;;20.10;99.90;;;;;;5014431;28;19925;-63
2022/09/19 08:29:32;;;;;;;;;;;20.00;99.90;;;;;;5033273;28;19929;-64
2022/09/19 08:32:06;;;;;;;;;;;20.10;99.90;;;;;;5014843;28;19949;-65
2022/09/19 08:34:35;;;;;;;;;;;20.00;99.90;;;;;;5010763;28;20359;-63
2022/09/19 08:37:04;;;;;;;;;;;20.00;99.90;;;;;;5016768;28;19928;-64
2022/09/19 08:39:34;;;;;;;;;;;20.00;99.90;;;;;;5024456;28;19979;-64
2022/09/19 08:42:15;;;;;;;;;;;20.00;99.90;;;;;;5018850;28;20297;-63
2022/09/19 08:44:48;;;;;;;;;;;20.00;99.90;;;;;;5011573;28;19931;-63
2022/09/19 08:47:18;;;;;;;;;;;20.10;99.90;;;;;;5011860;28;19925;-63
2022/09/19 08:49:51;;;;;;;;;;;20.00;99.90;;;;;;5024481;28;19929;-61
2022/09/19 08:52:29;;;;;;;;;;;20.00;99.90;;;;;;5034640;28;19929;-63
2022/09/19 08:55:00;;;;;;;;;;;20.00;99.90;;;;;;5018697;28;19936;-62
2022/09/19 08:57:38;;;;;;;;;;;20.00;99.90;;;;;;5018070;28;19929;-64
2022/09/19 09:00:20;;;;;;;;;;;20.10;99.90;;;;;;5015072;28;19930;-62
2022/09/19 09:02:51;;;;;;;;;;;20.10;99.90;;;;;;5018854;28;19929;-61
2022/09/19 09:05:57;;;;;;;;;;;20.10;99.90;;;;;;5017492;28;19935;-65
2022/09/19 09:08:43;;;;;;;;;;;20.10;99.90;;;;;;5010789;28;19925;-62
2022/09/19 09:11:18;;;;;;;;;;;20.10;99.90;;;;;;5039316;28;20241;-63
2022/09/19 09:13:53;;;;;;;;;;;20.20;99.90;;;;;;5025865;28;19948;-64
2022/09/19 09:16:52;;;;;;;;;;;20.20;99.90;;;;;;5005163;28;20352;-63
2022/09/19 09:19:40;;;;;;;;;;;20.20;99.90;;;;;;5025691;28;20423;-60
2022/09/19 09:22:19;;;;;;;;;;;20.20;99.90;;;;;;5028055;28;20384;-60
2022/09/19 09:25:00;;;;;;;;;;;20.20;99.90;;;;;;5025667;28;20392;-62
2022/09/19 09:27:41;;;;;;;;;;;20.30;99.90;;;;;;5017373;28;19932;-62
2022/09/19 09:30:17;;;;;;;;;;;20.20;99.90;;;;;;5004459;28;20346;-59
2022/09/19 09:33:23;;;;;;;;;;;20.20;99.90;;;;;;5012861;28;20401;-63
2022/09/19 09:35:54;;;;;;;;;;;20.20;99.90;;;;;;5012830;28;19932;-61
2022/09/19 09:38:33;;;;;;;;;;;20.20;99.90;;;;;;5014107;28;19929;-62
2022/09/19 09:44:03;;;;;;;;;;;20.20;99.90;;;;;;5011601;28;19925;-62
2022/09/19 09:46:49;;;;;;;;;;;20.20;99.90;;;;;;5033579;28;19925;-61
2022/09/19 09:49:27;;;;;;;;;;;20.20;99.90;;;;;;5025202;28;19929;-60
2022/09/19 09:52:22;;;;;;;;;;;20.20;99.90;;;;;;5009375;28;19934;-61
2022/09/19 09:57:47;;;;;;;;;;;20.20;99.90;;;;;;5015081;28;20042;-64
2022/09/19 10:03:34;;;;;;;;;;;20.20;99.90;;;;;;5026543;28;20799;-63
2022/09/19 10:06:34;;;;;;;;;;;20.20;99.90;;;;;;5018485;28;19925;-64
2022/09/19 10:09:08;;;;;;;;;;;20.30;99.90;;;;;;5019769;28;19935;-64
2022/09/19 10:11:45;;;;;;;;;;;20.20;99.90;;;;;;5006939;28;19941;-64
2022/09/19 10:14:35;;;;;;;;;;;20.20;99.90;;;;;;5007042;28;19929;-64
2022/09/19 10:17:26;;;;;;;;;;;20.20;99.90;;;;;;5031475;28;19937;-62
2022/09/19 10:19:57;;;;;;;;;;;20.20;99.90;;;;;;5030024;28;19935;-63
2022/09/19 10:22:25;;;;;;;;;;;20.20;99.90;;;;;;5020515;28;20321;-62
2022/09/19 10:25:08;;;;;;;;;;;20.20;99.90;;;;;;5000100;28;19929;-64
2022/09/19 10:27:39;;;;;;;;;;;20.20;99.90;;;;;;5002292;28;19958;-61
2022/09/19 10:30:22;;;;;;;;;;;20.30;99.90;;;;;;5022240;28;19933;-62
2022/09/19 10:32:50;;;;;;;;;;;20.30;99.90;;;;;;5009171;28;19929;-64
2022/09/19 10:35:37;;;;;;;;;;;20.20;99.90;;;;;;5021531;28;19933;-63
2022/09/19 10:38:13;;;;;;;;;;;20.20;99.90;;;;;;5003503;28;20327;-62
2022/09/19 10:40:52;;;;;;;;;;;20.20;99.90;;;;;;5035463;28;19928;-63
2022/09/19 10:43:30;;;;;;;;;;;20.20;99.90;;;;;;5014394;28;19937;-65
2022/09/19 10:46:06;;;;;;;;;;;20.20;99.90;;;;;;5013751;28;20008;-64
2022/09/19 10:48:39;;;;;;;;;;;20.20;99.90;;;;;;4999468;28;19929;-64
2022/09/19 10:51:12;;;;;;;;;;;20.20;99.90;;;;;;5006202;28;19929;-63
2022/09/19 10:53:45;;;;;;;;;;;20.20;99.90;;;;;;5007970;28;19932;-60
2022/09/19 10:56:22;;;;;;;;;;;20.20;99.90;;;;;;5029968;28;20487;-62
2022/09/19 10:58:53;;;;;;;;;;;20.20;99.90;;;;;;5008179;28;19929;-63
2022/09/19 11:01:28;;;;;;;;;;;20.20;99.90;;;;;;5018095;28;20427;-62
2022/09/19 11:04:22;;;;;;;;;;;20.20;99.90;;;;;;5025785;28;19925;-62
2022/09/19 11:06:55;;;;;;;;;;;20.20;99.90;;;;;;5002327;28;19930;-63
2022/09/19 11:09:25;;;;;;;;;;;20.20;99.90;;;;;;5003862;28;20452;-65
2022/09/19 11:12:02;;;;;;;;;;;20.20;99.90;;;;;;5028653;28;19932;-60
2022/09/19 11:14:37;;;;;;;;;;;20.20;99.90;;;;;;5015933;28;19925;-64
2022/09/19 11:17:29;;;;;;;;;;;20.20;99.90;;;;;;5014398;28;20388;-63
2022/09/19 11:20:18;;;;;;;;;;;20.20;99.90;;;;;;5024587;28;19932;-61
2022/09/19 11:23:13;;;;;;;;;;;20.20;99.90;;;;;;4998128;28;19929;-62
2022/09/19 11:25:58;;;;;;;;;;;20.20;99.90;;;;;;5029758;28;19943;-62
2022/09/19 11:28:47;;;;;;;;;;;20.20;99.90;;;;;;5013768;28;19972;-64
2022/09/19 11:31:32;;;;;;;;;;;20.10;99.90;;;;;;5019261;28;20420;-63
2022/09/19 11:34:37;;;;;;;;;;;20.20;99.90;;;;;;5018637;28;19929;-62
2022/09/19 11:37:44;;;;;;;;;;;20.20;99.90;;;;;;5030199;28;19945;-62
2022/09/19 11:40:26;;;;;;;;;;;20.20;99.90;;;;;;5019258;28;20345;-63
2022/09/19 11:43:16;;;;;;;;;;;20.20;99.90;;;;;;5021751;28;19929;-64
2022/09/19 11:45:56;;;;;;;;;;;20.20;99.90;;;;;;5025247;28;19925;-64
2022/09/19 11:48:36;;;;;;;;;;;20.20;99.90;;;;;;5009577;28;20394;-61
2022/09/19 11:51:08;;;;;;;;;;;20.10;99.90;;;;;;4996075;28;19936;-63
2022/09/19 11:53:42;;;;;;;;;;;20.20;99.90;;;;;;5006228;28;19943;-65
2022/09/19 11:56:15;;;;;;;;;;;20.20;99.90;;;;;;5015185;28;19932;-63
2022/09/19 11:58:51;;;;;;;;;;;20.20;99.90;;;;;;5015204;28;20005;-64
2022/09/19 12:01:26;;;;;;;;;;;20.20;99.90;;;;;;5021800;28;19937;-64
2022/09/19 12:04:08;;;;;;;;;;;20.20;99.90;;;;;;5024860;28;19930;-63
2022/09/19 12:06:50;;;;;;;;;;;20.20;99.90;;;;;;5007354;28;19936;-64
2022/09/19 12:09:25;;;;;;;;;;;20.20;99.90;;;;;;5011416;28;20308;-64
2022/09/19 12:12:01;;;;;;;;;;;20.20;99.90;;;;;;5011079;28;19935;-63
2022/09/19 12:14:42;;;;;;;;;;;20.20;99.90;;;;;;5013369;28;19929;-64
2022/09/19 12:17:23;;;;;;;;;;;20.20;99.90;;;;;;5004105;28;19930;-64
2022/09/19 12:19:58;;;;;;;;;;;20.20;99.90;;;;;;5017772;28;19937;-61
2022/09/19 12:22:27;;;;;;;;;;;20.20;99.90;;;;;;5035388;28;20427;-63
2022/09/19 12:25:18;;;;;;;;;;;20.20;99.90;;;;;;5020885;28;19932;-58
2022/09/19 12:28:06;;;;;;;;;;;20.20;99.90;;;;;;4996518;28;19932;-62
2022/09/19 12:30:35;;;;;;;;;;;20.20;99.90;;;;;;5009963;28;19925;-62
2022/09/19 12:33:13;;;;;;;;;;;20.20;99.90;;;;;;5018622;28;19929;-62
2022/09/19 12:35:57;;;;;;;;;;;20.20;99.90;;;;;;5011835;28;20412;-61
2022/09/19 12:38:28;;;;;;;;;;;20.20;99.90;;;;;;5007338;28;19932;-63
2022/09/19 12:41:28;;;;;;;;;;;20.20;99.90;;;;;;5020120;28;19936;-63
2022/09/19 12:43:58;;;;;;;;;;;20.30;99.90;;;;;;4984299;28;19936;-64
2022/09/19 12:46:27;;;;;;;;;;;20.20;99.90;;;;;;5019615;28;19936;-65
2022/09/19 12:49:02;;;;;;;;;;;20.20;99.90;;;;;;5003156;28;19929;-65
2022/09/19 12:51:56;;;;;;;;;;;20.20;99.90;;;;;;5010350;28;19933;-63
2022/09/19 12:54:28;;;;;;;;;;;20.30;99.90;;;;;;5033301;28;19930;-66
2022/09/19 12:57:16;;;;;;;;;;;20.30;99.90;;;;;;5034426;28;20311;-63
2022/09/19 12:59:46;;;;;;;;;;;20.30;99.90;;;;;;5038058;28;19936;-62
2022/09/19 13:02:20;;;;;;;;;;;20.20;99.90;;;;;;5030915;28;19929;-64
2022/09/19 13:04:54;;;;;;;;;;;20.20;99.90;;;;;;5048385;28;19936;-63
2022/09/19 13:07:35;;;;;;;;;;;20.30;99.90;;;;;;5044806;28;19924;-64
2022/09/19 13:10:05;;;;;;;;;;;20.30;99.90;;;;;;5018199;28;20413;-64
2022/09/19 13:12:37;;;;;;;;;;;20.20;99.90;;;;;;5007909;28;19932;-62
2022/09/19 13:15:14;;;;;;;;;;;20.30;99.90;;;;;;5030431;28;19929;-65
2022/09/19 13:23:32;;;;;;;;;;;20.40;99.90;;;;;;5047874;28;20251;-64
2022/09/19 13:26:16;;;;;;;;;;;20.40;99.90;;;;;;5039367;28;19929;-64
2022/09/19 13:28:50;;;;;;;;;;;20.40;99.90;;;;;;5027802;28;19929;-64
2022/09/19 13:31:17;;;;;;;;;;;20.40;99.90;;;;;;5010752;28;20320;-63
2022/09/19 13:33:48;;;;;;;;;;;20.40;99.90;;;;;;5039434;28;20412;-62
2022/09/19 13:36:16;;;;;;;;;;;20.40;99.90;;;;;;5024294;28;20389;-64
2022/09/19 13:38:45;;;;;;;;;;;20.40;99.90;;;;;;5010759;28;19929;-63
2022/09/19 13:41:29;;;;;;;;;;;20.50;99.90;;;;;;5031375;28;20584;-64
2022/09/19 13:44:08;;;;;;;;;;;20.50;99.90;;;;;;5028987;28;19929;-64
2022/09/19 13:46:55;;;;;;;;;;;20.60;99.90;;;;;;5042595;28;19925;-62
2022/09/19 13:49:49;;;;;;;;;;;20.60;99.90;;;;;;5009549;28;19928;-63
2022/09/19 13:52:26;;;;;;;;;;;20.50;99.90;;;;;;4998322;28;20293;-61
2022/09/19 13:55:14;;;;;;;;;;;20.50;99.90;;;;;;5038513;28;19929;-61
2022/09/19 13:57:42;;;;;;;;;;;20.40;99.90;;;;;;5029529;28;19936;-63
2022/09/19 14:00:37;;;;;;;;;;;20.40;99.90;;;;;;5029125;28;20416;-61
2022/09/19 14:03:06;;;;;;;;;;;20.40;99.90;;;;;;4994511;28;20333;-63
2022/09/19 14:05:34;;;;;;;;;;;20.40;99.90;;;;;;5010269;28;19984;-63
2022/09/19 14:08:02;;;;;;;;;;;20.50;99.90;;;;;;5017619;28;19929;-64
2022/09/19 14:10:53;;;;;;;;;;;20.50;99.90;;;;;;5033142;28;20332;-63
2022/09/19 14:13:21;;;;;;;;;;;20.40;99.90;;;;;;5027218;28;19929;-61
2022/09/19 14:16:03;;;;;;;;;;;20.40;99.90;;;;;;5043037;28;19936;-63
2022/09/19 14:18:36;;;;;;;;;;;20.40;99.90;;;;;;5012434;28;19929;-64
2022/09/19 14:21:05;;;;;;;;;;;20.40;99.90;;;;;;5052513;28;19929;-65
2022/09/19 14:23:34;;;;;;;;;;;20.40;99.90;;;;;;5045210;28;19951;-64
2022/09/19 14:26:06;;;;;;;;;;;20.40;99.90;;;;;;5038203;28;20316;-64
2022/09/19 14:28:42;;;;;;;;;;;20.40;99.90;;;;;;5023466;28;20008;-63
2022/09/19 14:31:21;;;;;;;;;;;20.40;99.90;;;;;;5007646;28;19925;-61
2022/09/19 14:33:53;;;;;;;;;;;20.30;99.90;;;;;;5020381;28;19934;-63
2022/09/19 14:36:39;;;;;;;;;;;20.40;99.90;;;;;;5036338;28;19925;-61
2022/09/19 14:39:25;;;;;;;;;;;20.40;99.90;;;;;;5046936;28;19924;-62
2022/09/19 14:42:15;;;;;;;;;;;20.30;99.90;;;;;;5041382;28;20019;-63
2022/09/19 14:44:47;;;;;;;;;;;20.30;99.90;;;;;;5023581;28;19929;-59
2022/09/19 14:47:24;;;;;;;;;;;20.30;99.90;;;;;;5031986;28;19924;-65
2022/09/19 14:49:56;;;;;;;;;;;20.30;99.90;;;;;;5036742;28;19940;-64
2022/09/19 14:52:25;;;;;;;;;;;20.30;99.90;;;;;;5020994;28;20304;-63
2022/09/19 14:55:04;;;;;;;;;;;20.30;99.90;;;;;;5029076;28;20448;-61
2022/09/19 14:57:33;;;;;;;;;;;20.20;99.90;;;;;;5023357;28;20399;-61
2022/09/19 15:00:34;;;;;;;;;;;20.30;99.90;;;;;;5024304;28;19960;-64
2022/09/19 15:03:10;;;;;;;;;;;20.30;99.90;;;;;;4970483;28;19929;-64
2022/09/19 15:05:38;;;;;;;;;;;20.30;99.90;;;;;;5020958;28;19928;-63
2022/09/19 15:08:12;;;;;;;;;;;20.30;99.90;;;;;;5034693;28;19925;-63
2022/09/19 15:10:40;;;;;;;;;;;20.20;99.90;;;;;;5026066;28;19929;-62
2022/09/19 15:13:20;;;;;;;;;;;20.20;99.90;;;;;;5027264;28;19936;-63
2022/09/19 15:15:57;;;;;;;;;;;20.20;99.90;;;;;;5023041;28;19947;-63
2022/09/19 15:18:28;;;;;;;;;;;20.20;99.90;;;;;;5020767;28;19929;-64
2022/09/19 15:20:56;;;;;;;;;;;20.20;99.90;;;;;;4987703;28;20576;-62
2022/09/19 15:23:27;;;;;;;;;;;20.20;99.90;;;;;;5019704;28;19929;-64
2022/09/19 15:25:55;;;;;;;;;;;20.10;99.90;;;;;;5037605;28;19936;-64